createdAt,value
2022-07-31T00:01:17.584Z,10.39
2022-07-31T00:03:46.011Z,10.41
2022-07-31T00:06:13.989Z,10.38
2022-07-31T00:08:41.914Z,10.19
2022-07-31T00:11:12.014Z,10.06
2022-07-31T00:13:58.109Z,10.23
2022-07-31T00:16:29.459Z,10.22
2022-07-31T00:18:57.481Z,10.19
2022-07-31T00:21:25.497Z,10.17
2022-07-31T00:23:53.937Z,10.20
2022-07-31T00:26:22.039Z,10.14
2022-07-31T00:28:50.102Z,10.04
2022-07-31T00:31:18.834Z,10.07
2022-07-31T00:33:46.816Z,10.06
2022-07-31T00:36:14.720Z,10.16
2022-07-31T00:38:43.142Z,10.13
2022-07-31T00:41:11.604Z,10.11
2022-07-31T00:43:39.596Z,10.13
2022-07-31T00:46:07.887Z,10.08
2022-07-31T00:48:42.449Z,10.11
2022-07-31T00:51:10.681Z,10.21
2022-07-31T00:53:38.653Z,10.37
2022-07-31T00:56:06.680Z,10.49
2022-07-31T00:58:35.381Z,10.54
2022-07-31T01:01:03.438Z,10.13
2022-07-31T01:03:31.750Z,9.95
2022-07-31T01:06:02.278Z,10.13
2022-07-31T01:08:30.429Z,10.09
2022-07-31T01:11:16.040Z,10.12
2022-07-31T01:13:54.783Z,9.88
2022-07-31T01:16:26.716Z,9.75
2022-07-31T01:18:59.704Z,10.09
2022-07-31T01:21:40.309Z,10.17
2022-07-31T01:24:43.983Z,9.87
2022-07-31T01:27:27.407Z,9.81
2022-07-31T01:29:59.443Z,9.70
2022-07-31T01:32:35.859Z,9.57
2022-07-31T01:35:30.049Z,9.47
2022-07-31T01:38:05.317Z,9.44
2022-07-31T01:40:36.703Z,9.39
2022-07-31T01:43:13.022Z,9.30
2022-07-31T01:45:45.936Z,9.62
2022-07-31T01:48:16.380Z,9.67
2022-07-31T01:50:47.328Z,9.41
2022-07-31T01:53:21.152Z,9.42
2022-07-31T01:56:03.796Z,9.25
2022-07-31T01:58:34.073Z,9.05
2022-07-31T02:01:08.073Z,9.12
2022-07-31T02:03:44.102Z,9.15
2022-07-31T02:06:17.184Z,9.26
2022-07-31T02:08:53.115Z,9.35
2022-07-31T02:11:22.898Z,9.47
2022-07-31T02:13:53.628Z,9.36
2022-07-31T02:16:23.686Z,9.31
2022-07-31T02:18:56.029Z,9.45
2022-07-31T02:21:27.232Z,9.39
2022-07-31T02:23:57.119Z,9.35
2022-07-31T02:26:28.051Z,9.28
2022-07-31T02:28:57.427Z,9.24
2022-07-31T02:31:26.800Z,9.99
2022-07-31T02:33:54.810Z,9.72
2022-07-31T02:36:24.222Z,9.73
2022-07-31T02:38:55.355Z,9.80
2022-07-31T02:41:25.423Z,10.15
2022-07-31T02:43:54.108Z,10.13
2022-07-31T02:46:23.423Z,10.36
2022-07-31T02:48:52.065Z,10.12
2022-07-31T02:51:21.257Z,10.17
2022-07-31T02:53:49.901Z,10.25
2022-07-31T02:56:19.923Z,10.33
2022-07-31T02:58:48.305Z,10.86
2022-07-31T03:01:17.733Z,11.09
2022-07-31T03:03:45.719Z,11.26
2022-07-31T03:06:14.786Z,11.25
2022-07-31T03:08:43.655Z,11.41
2022-07-31T03:11:12.214Z,11.78
2022-07-31T03:13:43.980Z,12.38
2022-07-31T03:16:13.398Z,12.59
2022-07-31T03:18:42.381Z,12.62
2022-07-31T03:21:12.375Z,12.72
2022-07-31T03:23:40.913Z,12.95
2022-07-31T03:26:10.915Z,13.24
2022-07-31T03:28:40.263Z,13.47
2022-07-31T03:31:08.753Z,13.77
2022-07-31T03:33:37.448Z,13.97
2022-07-31T03:36:24.151Z,14.08
2022-07-31T03:38:52.502Z,14.30
2022-07-31T03:41:21.832Z,14.47
2022-07-31T03:43:51.205Z,14.64
2022-07-31T03:46:21.695Z,14.83
2022-07-31T03:48:53.016Z,15.05
2022-07-31T03:51:22.044Z,15.24
2022-07-31T03:53:51.823Z,15.43
2022-07-31T03:56:23.860Z,15.59
2022-07-31T03:58:52.818Z,15.82
2022-07-31T04:01:22.354Z,16.04
2022-07-31T04:04:00.628Z,16.30
2022-07-31T04:06:31.379Z,16.55
2022-07-31T04:09:13.674Z,16.81
2022-07-31T04:11:47.892Z,17.08
2022-07-31T04:14:35.486Z,17.34
2022-07-31T04:17:03.730Z,17.61
2022-07-31T04:19:32.869Z,17.93
2022-07-31T04:22:01.655Z,18.31
2022-07-31T04:24:31.625Z,18.72
2022-07-31T04:27:00.572Z,19.06
2022-07-31T04:29:30.099Z,19.26
2022-07-31T04:31:58.930Z,19.56
2022-07-31T04:34:27.850Z,19.86
2022-07-31T04:39:41.258Z,20.49
2022-07-31T04:42:11.617Z,20.84
2022-07-31T04:44:39.872Z,21.07
2022-07-31T04:47:09.329Z,21.36
2022-07-31T04:49:39.324Z,21.61
2022-07-31T04:52:10.331Z,21.94
2022-07-31T04:54:39.906Z,22.25
2022-07-31T04:57:08.654Z,22.57
2022-07-31T04:59:59.295Z,22.78
2022-07-31T05:02:24.916Z,23.05
2022-07-31T05:04:56.892Z,23.30
2022-07-31T05:07:28.922Z,23.60
2022-07-31T05:09:58.957Z,23.86
2022-07-31T05:12:27.718Z,24.17
2022-07-31T05:14:55.791Z,24.52
2022-07-31T05:17:23.818Z,24.87
2022-07-31T05:19:52.624Z,25.20
2022-07-31T05:22:21.930Z,25.49
2022-07-31T05:24:49.895Z,25.65
2022-07-31T05:27:39.111Z,25.92
2022-07-31T05:30:10.246Z,26.29
2022-07-31T05:32:38.789Z,26.62
2022-07-31T05:35:07.129Z,26.96
2022-07-31T05:37:36.137Z,27.35
2022-07-31T05:40:05.697Z,27.66
2022-07-31T05:42:38.708Z,27.78
2022-07-31T05:45:08.298Z,28.02
2022-07-31T05:47:40.457Z,28.40
2022-07-31T05:50:10.048Z,28.44
2022-07-31T05:55:25.774Z,29.14
2022-07-31T05:57:53.890Z,29.47
2022-07-31T06:00:21.826Z,29.84
2022-07-31T06:02:51.009Z,30.10
2022-07-31T06:05:20.680Z,30.36
2022-07-31T06:07:52.157Z,30.66
2022-07-31T06:10:25.387Z,30.78
2022-07-31T06:12:53.544Z,30.97
2022-07-31T06:15:22.131Z,30.61
2022-07-31T06:17:51.060Z,30.86
2022-07-31T06:20:20.697Z,31.51
2022-07-31T06:23:22.662Z,31.84
2022-07-31T06:25:57.719Z,32.26
2022-07-31T06:28:35.381Z,32.53
2022-07-31T06:31:18.864Z,32.67
2022-07-31T06:33:48.548Z,32.72
2022-07-31T06:36:18.941Z,33.07
2022-07-31T06:38:47.349Z,33.34
2022-07-31T06:44:54.946Z,34.04
2022-07-31T06:47:27.059Z,34.24
2022-07-31T06:49:56.068Z,33.35
2022-07-31T06:52:26.871Z,34.05
2022-07-31T06:54:55.581Z,34.32
2022-07-31T06:57:23.577Z,34.76
2022-07-31T06:59:51.592Z,35.22
2022-07-31T07:02:19.968Z,35.48
2022-07-31T07:05:04.870Z,35.49
2022-07-31T07:07:36.733Z,34.17
2022-07-31T07:10:06.510Z,35.97
2022-07-31T07:12:36.841Z,36.65
2022-07-31T07:15:05.516Z,36.46
2022-07-31T07:17:34.045Z,36.52
2022-07-31T07:20:02.970Z,36.96
2022-07-31T07:22:32.823Z,37.34
2022-07-31T07:25:01.948Z,36.80
2022-07-31T07:27:31.520Z,36.22
2022-07-31T07:30:00.177Z,34.73
2022-07-31T07:32:28.524Z,33.52
2022-07-31T07:34:59.678Z,32.71
2022-07-31T07:37:38.932Z,30.85
2022-07-31T07:40:09.366Z,32.72
2022-07-31T07:42:38.448Z,32.87
2022-07-31T07:45:08.214Z,30.60
2022-07-31T07:48:05.024Z,31.98
2022-07-31T07:50:26.777Z,33.00
2022-07-31T07:52:59.356Z,32.86
2022-07-31T07:55:37.535Z,33.41
2022-07-31T07:58:29.746Z,31.77
2022-07-31T08:01:02.075Z,33.52
2022-07-31T08:03:50.885Z,32.98
2022-07-31T08:06:19.093Z,29.74
2022-07-31T08:08:47.720Z,32.71
2022-07-31T08:11:20.775Z,33.97
2022-07-31T08:13:51.369Z,32.10
2022-07-31T08:16:23.289Z,32.06
2022-07-31T08:18:52.164Z,31.17
2022-07-31T08:21:20.245Z,34.66
2022-07-31T08:23:48.446Z,33.70
2022-07-31T08:26:18.822Z,36.40
2022-07-31T08:28:49.806Z,37.44
2022-07-31T08:31:23.559Z,35.10
2022-07-31T08:33:53.291Z,32.88
2022-07-31T08:36:21.058Z,32.88
2022-07-31T08:38:52.057Z,38.04
2022-07-31T08:41:22.916Z,34.08
2022-07-31T08:44:01.751Z,35.86
2022-07-31T08:46:40.237Z,37.53
2022-07-31T08:49:11.838Z,34.97
2022-07-31T08:52:01.018Z,33.14
2022-07-31T08:54:36.022Z,38.20
2022-07-31T08:57:05.724Z,35.50
2022-07-31T08:59:44.737Z,38.18
2022-07-31T09:02:13.603Z,38.07
2022-07-31T09:04:48.231Z,38.70
2022-07-31T09:07:18.429Z,35.24
2022-07-31T09:09:51.593Z,34.87
2022-07-31T09:12:34.650Z,33.80
2022-07-31T09:15:04.307Z,35.17
2022-07-31T09:17:35.372Z,34.67
2022-07-31T09:20:06.073Z,35.95
2022-07-31T09:22:34.840Z,38.83
2022-07-31T09:25:12.689Z,40.37
2022-07-31T09:27:41.107Z,39.30
2022-07-31T09:30:10.215Z,40.92
2022-07-31T09:32:41.657Z,36.00
2022-07-31T09:35:13.454Z,39.28
2022-07-31T09:37:42.435Z,34.13
2022-07-31T09:40:12.660Z,31.31
2022-07-31T09:42:55.487Z,31.80
2022-07-31T09:45:25.999Z,28.31
2022-07-31T09:48:06.686Z,32.13
2022-07-31T09:50:35.401Z,34.10
2022-07-31T09:53:03.482Z,34.31
2022-07-31T09:55:33.016Z,36.84
2022-07-31T09:58:01.886Z,32.43
2022-07-31T10:00:30.357Z,36.71
2022-07-31T10:03:00.463Z,35.82
2022-07-31T10:05:28.947Z,32.19
2022-07-31T10:08:00.817Z,36.21
2022-07-31T10:10:32.626Z,33.81
2022-07-31T10:13:07.078Z,35.72
2022-07-31T10:15:38.012Z,35.16
2022-07-31T10:18:09.866Z,36.92
2022-07-31T10:20:42.588Z,32.38
2022-07-31T10:23:18.321Z,39.33
2022-07-31T10:25:53.640Z,39.10
2022-07-31T10:28:24.489Z,38.88
2022-07-31T10:30:53.726Z,36.32
2022-07-31T10:33:43.097Z,34.41
2022-07-31T10:36:20.725Z,32.34
2022-07-31T10:39:02.267Z,30.84
2022-07-31T10:41:55.250Z,36.19
2022-07-31T10:47:21.372Z,33.50
2022-07-31T10:49:50.627Z,33.37
2022-07-31T10:52:32.278Z,32.45
2022-07-31T10:55:04.045Z,34.15
2022-07-31T10:57:57.241Z,34.45
2022-07-31T11:00:29.573Z,31.61
2022-07-31T11:02:58.607Z,29.76
2022-07-31T11:05:28.450Z,30.06
2022-07-31T11:08:10.415Z,28.88
2022-07-31T11:10:56.756Z,33.14
2022-07-31T11:13:36.795Z,29.37
2022-07-31T11:16:07.029Z,30.17
2022-07-31T11:18:39.978Z,32.02
2022-07-31T11:21:36.313Z,29.03
2022-07-31T11:24:02.973Z,27.34
2022-07-31T11:26:41.222Z,31.58
2022-07-31T11:30:01.217Z,26.30
2022-07-31T11:32:02.115Z,25.57
2022-07-31T11:34:30.248Z,27.22
2022-07-31T11:36:58.585Z,27.21
2022-07-31T11:39:36.939Z,27.39
2022-07-31T11:42:07.724Z,29.77
2022-07-31T11:44:36.605Z,30.86
2022-07-31T11:48:09.826Z,29.33
2022-07-31T11:50:02.415Z,27.82
2022-07-31T11:52:37.027Z,29.06
2022-07-31T11:55:16.634Z,28.23
2022-07-31T11:57:51.402Z,28.45
2022-07-31T12:00:28.848Z,27.60
2022-07-31T12:02:59.100Z,27.32
2022-07-31T12:05:38.790Z,28.19
2022-07-31T12:08:08.300Z,28.38
2022-07-31T12:10:36.621Z,28.67
2022-07-31T12:13:04.488Z,29.50
2022-07-31T12:15:32.893Z,29.78
2022-07-31T12:18:03.616Z,30.10
2022-07-31T12:20:37.151Z,30.43
2022-07-31T12:23:06.622Z,30.92
2022-07-31T12:25:46.693Z,31.25
2022-07-31T12:28:16.054Z,31.97
2022-07-31T12:33:43.866Z,33.04
2022-07-31T12:36:14.285Z,32.49
2022-07-31T12:38:45.151Z,33.09
2022-07-31T12:41:16.886Z,33.94
2022-07-31T12:43:50.232Z,34.34
2022-07-31T12:46:38.172Z,33.96
2022-07-31T12:49:07.017Z,34.11
2022-07-31T12:51:45.111Z,33.84
2022-07-31T12:54:18.738Z,33.20
2022-07-31T12:56:47.265Z,32.48
2022-07-31T12:59:18.227Z,32.88
2022-07-31T13:01:46.249Z,32.94
2022-07-31T13:04:19.115Z,33.13
2022-07-31T13:06:51.899Z,33.58
2022-07-31T13:09:20.575Z,33.60
2022-07-31T13:11:52.263Z,32.96
2022-07-31T13:14:24.347Z,33.81
2022-07-31T13:16:54.023Z,34.47
2022-07-31T13:19:22.502Z,34.85
2022-07-31T13:21:50.502Z,34.95
2022-07-31T13:24:20.619Z,34.87
2022-07-31T13:26:51.392Z,33.82
2022-07-31T13:29:20.952Z,32.48
2022-07-31T13:31:48.912Z,32.05
2022-07-31T13:34:17.136Z,33.31
2022-07-31T13:36:45.642Z,34.98
2022-07-31T13:39:13.750Z,34.21
2022-07-31T13:41:42.220Z,31.87
2022-07-31T13:44:10.733Z,30.62
2022-07-31T13:46:38.893Z,30.23
2022-07-31T13:49:10.869Z,30.95
2022-07-31T13:51:39.589Z,32.62
2022-07-31T13:54:08.305Z,34.17
2022-07-31T13:56:42.809Z,33.18
2022-07-31T13:59:13.110Z,31.35
2022-07-31T14:02:04.133Z,27.94
2022-07-31T14:04:32.468Z,27.03
2022-07-31T14:07:07.146Z,27.08
2022-07-31T14:09:36.311Z,26.85
2022-07-31T14:12:05.568Z,29.26
2022-07-31T14:14:34.285Z,32.26
2022-07-31T14:17:02.849Z,34.06
2022-07-31T14:19:44.088Z,35.22
2022-07-31T14:22:13.557Z,34.76
2022-07-31T14:24:42.065Z,32.31
2022-07-31T14:27:18.543Z,30.08
2022-07-31T14:29:47.025Z,28.61
2022-07-31T14:35:04.578Z,26.48
2022-07-31T14:37:35.600Z,29.52
2022-07-31T14:40:05.993Z,32.06
2022-07-31T14:42:34.000Z,33.82
2022-07-31T14:45:06.571Z,34.02
2022-07-31T14:47:35.898Z,32.77
2022-07-31T14:50:12.034Z,31.69
2022-07-31T14:52:41.294Z,30.40
2022-07-31T14:55:09.781Z,32.14
2022-07-31T14:57:37.878Z,32.24
2022-07-31T15:00:14.219Z,31.70
2022-07-31T15:02:45.807Z,31.55
2022-07-31T15:06:51.334Z,30.63
2022-07-31T15:08:03.595Z,29.41
2022-07-31T15:10:32.441Z,28.06
2022-07-31T15:13:00.327Z,27.17
2022-07-31T15:15:28.411Z,26.85
2022-07-31T15:17:57.084Z,28.13
2022-07-31T15:20:30.989Z,30.61
2022-07-31T15:23:02.584Z,32.39
2022-07-31T15:25:31.089Z,33.50
2022-07-31T15:27:59.348Z,34.25
2022-07-31T15:30:27.724Z,34.86
2022-07-31T15:32:55.625Z,34.64
2022-07-31T15:35:23.735Z,34.06
2022-07-31T15:37:52.265Z,33.03
2022-07-31T15:40:20.278Z,32.05
2022-07-31T15:42:49.496Z,31.57
2022-07-31T15:45:19.456Z,31.78
2022-07-31T15:47:48.611Z,32.85
2022-07-31T15:50:21.895Z,33.48
2022-07-31T15:52:50.983Z,33.78
2022-07-31T15:55:19.173Z,33.24
2022-07-31T15:57:47.529Z,31.52
2022-07-31T16:00:16.362Z,31.11
2022-07-31T16:02:45.479Z,31.87
2022-07-31T16:05:35.865Z,31.65
2022-07-31T16:08:32.246Z,31.16
2022-07-31T16:10:55.144Z,29.95
2022-07-31T16:13:25.281Z,28.34
2022-07-31T16:15:53.799Z,27.26
2022-07-31T16:18:21.799Z,26.68
2022-07-31T16:20:50.320Z,26.17
2022-07-31T16:23:18.381Z,25.78
2022-07-31T16:25:46.554Z,25.70
2022-07-31T16:28:15.400Z,25.37
2022-07-31T16:30:45.936Z,24.97
2022-07-31T16:33:14.225Z,24.41
2022-07-31T16:35:42.185Z,24.10
2022-07-31T16:38:10.109Z,23.81
2022-07-31T16:40:38.591Z,24.01
2022-07-31T16:43:50.706Z,23.83
2022-07-31T16:45:56.515Z,23.73
2022-07-31T16:48:24.721Z,24.19
2022-07-31T16:50:52.991Z,24.55
2022-07-31T16:54:10.856Z,25.39
2022-07-31T16:56:16.213Z,24.58
2022-07-31T16:58:44.894Z,23.62
2022-07-31T17:01:59.451Z,23.42
2022-07-31T17:04:03.811Z,23.25
2022-07-31T17:06:39.964Z,23.15
2022-07-31T17:09:15.218Z,23.45
2022-07-31T17:11:49.104Z,23.09
2022-07-31T17:14:19.473Z,22.68
2022-07-31T17:16:49.333Z,21.74
2022-07-31T17:19:41.785Z,21.23
2022-07-31T17:22:11.288Z,21.19
2022-07-31T17:24:40.483Z,21.36
2022-07-31T17:27:09.976Z,21.47
2022-07-31T17:29:39.703Z,22.18
2022-07-31T17:32:08.395Z,22.11
2022-07-31T17:34:40.405Z,21.86
2022-07-31T17:37:09.178Z,22.12
2022-07-31T17:39:37.548Z,21.53
2022-07-31T17:42:05.746Z,21.60
2022-07-31T17:44:33.994Z,21.88
2022-07-31T17:47:05.102Z,21.53
2022-07-31T17:49:33.910Z,21.52
2022-07-31T17:52:01.776Z,22.15
2022-07-31T17:54:31.031Z,21.78
2022-07-31T17:57:00.087Z,21.22
2022-07-31T17:59:28.792Z,21.43
2022-07-31T18:05:05.658Z,22.07
2022-07-31T18:07:33.706Z,21.69
2022-07-31T18:10:01.990Z,21.38
2022-07-31T18:12:56.859Z,21.42
2022-07-31T18:15:19.382Z,20.87
2022-07-31T18:17:54.603Z,20.30
2022-07-31T18:20:22.980Z,19.38
2022-07-31T18:22:52.055Z,19.42
2022-07-31T18:25:20.227Z,19.06
2022-07-31T18:27:48.891Z,20.09
2022-07-31T18:30:16.918Z,20.53
2022-07-31T18:32:44.826Z,19.50
2022-07-31T18:35:13.295Z,19.57
2022-07-31T18:37:41.279Z,19.73
2022-07-31T18:40:09.756Z,19.61
2022-07-31T18:42:38.431Z,19.29
2022-07-31T18:45:07.153Z,19.94
2022-07-31T18:47:35.074Z,19.61
2022-07-31T18:51:00.028Z,19.99
2022-07-31T18:52:51.668Z,19.88
2022-07-31T18:55:20.160Z,20.18
2022-07-31T18:57:51.097Z,20.08
2022-07-31T19:00:19.542Z,20.15
2022-07-31T19:02:47.698Z,20.14
2022-07-31T19:05:21.572Z,19.99
2022-07-31T19:07:50.643Z,19.86
2022-07-31T19:10:30.971Z,20.09
2022-07-31T19:13:01.203Z,20.00
2022-07-31T19:15:30.192Z,19.44
2022-07-31T19:17:58.367Z,19.60
2022-07-31T19:20:41.401Z,19.95
2022-07-31T19:23:21.057Z,19.92
2022-07-31T19:26:02.259Z,20.04
2022-07-31T19:28:51.545Z,19.29
2022-07-31T19:31:20.120Z,18.71
2022-07-31T19:33:48.250Z,18.91
2022-07-31T19:36:16.580Z,18.95
2022-07-31T19:38:45.088Z,19.04
2022-07-31T19:41:14.193Z,18.60
2022-07-31T19:43:44.976Z,17.74
2022-07-31T19:46:13.451Z,17.79
2022-07-31T19:48:46.204Z,17.79
2022-07-31T19:51:16.212Z,17.01
2022-07-31T19:53:45.017Z,16.65
2022-07-31T19:59:04.875Z,16.92
2022-07-31T20:01:37.495Z,16.33
2022-07-31T20:04:11.360Z,16.45
2022-07-31T20:06:58.544Z,16.66
2022-07-31T20:09:27.259Z,16.78
2022-07-31T20:11:55.251Z,16.93
2022-07-31T20:14:23.112Z,16.55
2022-07-31T20:16:51.358Z,16.58
2022-07-31T20:19:19.226Z,17.08
2022-07-31T20:21:47.133Z,16.79
2022-07-31T20:24:18.076Z,16.77
2022-07-31T20:26:45.986Z,16.42
2022-07-31T20:29:13.849Z,16.38
2022-07-31T20:31:42.197Z,16.30
2022-07-31T20:34:10.134Z,16.12
2022-07-31T20:36:38.067Z,15.78
2022-07-31T20:41:52.102Z,15.84
2022-07-31T20:44:20.806Z,16.44
2022-07-31T20:46:51.164Z,16.63
2022-07-31T20:49:35.405Z,16.67
2022-07-31T20:52:05.421Z,16.55
2022-07-31T20:54:34.437Z,16.53
2022-07-31T20:57:03.036Z,17.73
2022-07-31T20:59:31.711Z,17.15
2022-07-31T21:01:59.678Z,17.01
2022-07-31T21:04:27.614Z,16.86
2022-07-31T21:06:55.926Z,16.89
2022-07-31T21:09:26.508Z,16.43
2022-07-31T21:12:13.227Z,16.35
2022-07-31T21:14:41.520Z,16.41
2022-07-31T21:17:09.563Z,16.70
2022-07-31T21:19:37.442Z,16.88
2022-07-31T21:22:06.118Z,16.41
2022-07-31T21:24:34.723Z,15.88
2022-07-31T21:27:05.623Z,15.39
2022-07-31T21:29:34.238Z,15.40
2022-07-31T21:32:03.045Z,15.76
2022-07-31T21:34:31.528Z,15.98
2022-07-31T21:37:01.750Z,15.33
2022-07-31T21:39:30.308Z,15.38
2022-07-31T21:41:58.467Z,15.12
2022-07-31T21:44:27.032Z,14.62
2022-07-31T21:46:56.690Z,14.87
2022-07-31T21:49:32.014Z,14.87
2022-07-31T21:52:01.106Z,15.08
2022-07-31T21:54:29.950Z,15.03
2022-07-31T21:56:57.945Z,14.80
2022-07-31T21:59:26.461Z,14.83
2022-07-31T22:01:57.712Z,14.95
2022-07-31T22:04:34.357Z,14.69
2022-07-31T22:07:21.319Z,15.18
2022-07-31T22:12:35.263Z,16.44
2022-07-31T22:15:04.108Z,16.52
2022-07-31T22:17:32.150Z,16.70
2022-07-31T22:20:00.950Z,16.26
2022-07-31T22:22:31.688Z,15.19
2022-07-31T22:25:00.558Z,15.65
2022-07-31T22:27:47.500Z,15.11
2022-07-31T22:30:16.422Z,14.86
2022-07-31T22:32:44.468Z,13.89
2022-07-31T22:35:13.755Z,13.85
2022-07-31T22:37:43.450Z,13.85
2022-07-31T22:40:11.440Z,14.27
2022-07-31T22:42:39.509Z,14.53
2022-07-31T22:45:08.518Z,14.59
2022-07-31T22:47:37.115Z,15.57
2022-07-31T22:50:06.978Z,15.25
2022-07-31T22:52:36.830Z,15.06
2022-07-31T22:55:06.372Z,14.75
2022-07-31T22:57:34.369Z,14.94
2022-07-31T23:00:21.218Z,14.46
2022-07-31T23:02:49.300Z,14.39
2022-07-31T23:05:17.733Z,14.75
2022-07-31T23:07:45.641Z,14.82
2022-07-31T23:10:13.486Z,14.72
2022-07-31T23:12:41.742Z,14.87
2022-07-31T23:15:09.671Z,14.88
2022-07-31T23:17:37.677Z,14.54
2022-07-31T23:20:07.119Z,13.89
2022-07-31T23:22:35.337Z,14.21
2022-07-31T23:25:05.376Z,14.69
2022-07-31T23:27:34.123Z,14.62
2022-07-31T23:30:02.326Z,14.15
2022-07-31T23:32:31.549Z,14.09
2022-07-31T23:34:59.785Z,13.93
2022-07-31T23:37:27.726Z,14.37
2022-07-31T23:39:55.590Z,14.39
2022-07-31T23:42:38.744Z,14.59
2022-07-31T23:45:13.139Z,14.69
2022-07-31T23:47:45.669Z,14.62
2022-07-31T23:50:14.976Z,14.60
2022-07-31T23:52:44.078Z,14.39
2022-07-31T23:55:13.059Z,14.03
2022-07-31T23:57:41.533Z,13.67
